Time;durP1;ratioP1;P1;durP2;ratioP2;P2;SDS_P1;SDS_P2;PMS_P1;PMS_P2;Temp;Humidity;BMP_temperature;BMP_pressure;BME280_temperature;BME280_humidity;BME280_pressure;Samples;Min_cycle;Max_cycle;Signal;HPM_P1;HPM_P2
2022/01/25 00:08:24;;;;;;;133.23;50.92;;;3.60;99.90;;;;;;5069417;28;20402;-91
2022/01/25 00:33:23;;;;;;;141.88;52.50;;;3.70;99.90;;;;;;5064101;28;20048;-91
2022/01/25 00:35:48;;;;;;;133.43;50.03;;;3.70;99.90;;;;;;5057086;28;20059;-91
2022/01/25 00:38:14;;;;;;;129.77;48.40;;;3.70;99.90;;;;;;5052089;28;20047;-91
2022/01/25 00:40:39;;;;;;;139.20;50.47;;;3.70;99.90;;;;;;5048915;28;20037;-91
2022/01/25 00:43:05;;;;;;;137.60;50.33;;;3.70;99.90;;;;;;5034463;28;20490;-91
2022/01/25 00:45:30;;;;;;;136.45;51.05;;;3.70;99.90;;;;;;5052195;28;20051;-91
2022/01/25 00:47:56;;;;;;;131.63;51.03;;;3.70;99.90;;;;;;5070739;28;20048;-92
2022/01/25 00:50:23;;;;;;;135.40;51.15;;;3.70;99.90;;;;;;5063921;28;20174;-92
2022/01/25 00:55:15;;;;;;;137.60;50.47;;;3.70;99.90;;;;;;5069392;28;20072;-92
2022/01/25 00:57:41;;;;;;;138.10;50.40;;;3.70;99.90;;;;;;5055741;28;20036;-92
2022/01/25 01:00:09;;;;;;;137.13;50.75;;;3.70;99.90;;;;;;5062827;28;20097;-92
2022/01/25 01:02:34;;;;;;;136.18;50.15;;;3.60;99.90;;;;;;5052461;28;20051;-92
2022/01/25 01:05:00;;;;;;;136.80;49.42;;;3.60;99.90;;;;;;5054864;28;20052;-92
2022/01/25 01:07:26;;;;;;;141.52;51.55;;;3.60;99.90;;;;;;5052438;28;20047;-91
2022/01/25 01:09:53;;;;;;;138.05;52.40;;;3.60;99.90;;;;;;5069785;28;20036;-93
2022/01/25 01:13:11;;;;;;;142.18;51.53;;;3.60;99.90;;;;;;5092497;28;20086;-92
2022/01/25 01:16:17;;;;;;;134.57;50.58;;;3.60;99.90;;;;;;5087293;28;20055;-92
2022/01/25 01:30:03;;;;;;;140.68;52.30;;;3.50;99.90;;;;;;5098446;28;20479;-91
2022/01/25 01:44:38;;;;;;;143.60;52.17;;;3.60;99.90;;;;;;5080675;28;20056;-91
2022/01/25 01:47:08;;;;;;;140.45;51.88;;;3.70;99.90;;;;;;5071392;28;20048;-91
2022/01/25 01:49:41;;;;;;;141.20;51.05;;;3.60;99.90;;;;;;5069646;28;20048;-91
2022/01/25 01:52:08;;;;;;;140.38;50.95;;;3.60;99.90;;;;;;5072279;28;20052;-91
2022/01/25 01:54:34;;;;;;;147.23;53.35;;;3.60;99.90;;;;;;5064035;28;20469;-91
2022/01/25 01:57:00;;;;;;;140.63;50.95;;;3.60;99.90;;;;;;5082577;28;20079;-91
2022/01/25 01:59:27;;;;;;;144.13;51.67;;;3.60;99.90;;;;;;5088836;28;20047;-91
2022/01/25 02:01:53;;;;;;;147.65;52.08;;;3.50;99.90;;;;;;5071573;28;20040;-92
2022/01/25 02:04:19;;;;;;;148.82;52.65;;;3.50;99.90;;;;;;5064636;28;20046;-91
2022/01/25 02:06:44;;;;;;;145.18;52.53;;;3.50;99.90;;;;;;5071342;28;20123;-91
2022/01/25 02:09:12;;;;;;;138.02;50.38;;;3.50;99.90;;;;;;5067078;28;20151;-91
2022/01/25 02:11:38;;;;;;;143.43;53.72;;;3.50;99.90;;;;;;5051419;28;20090;-91
2022/01/25 02:14:08;;;;;;;142.95;50.72;;;3.60;99.90;;;;;;5088403;28;20037;-91
2022/01/25 02:17:02;;;;;;;139.30;50.50;;;3.60;99.90;;;;;;5051382;28;20041;-92
2022/01/25 02:22:27;;;;;;;140.57;51.55;;;3.70;99.90;;;;;;5067927;28;20044;-91
2022/01/25 02:24:52;;;;;;;139.75;48.08;;;3.70;99.90;;;;;;5053814;28;20055;-91
2022/01/25 02:27:18;;;;;;;138.40;51.63;;;3.80;99.90;;;;;;5051253;28;20041;-91
2022/01/25 02:29:44;;;;;;;136.50;49.72;;;3.80;99.90;;;;;;5068761;28;20036;-91
2022/01/25 02:32:10;;;;;;;141.80;49.25;;;3.90;99.90;;;;;;5072376;28;20566;-91
2022/01/25 02:34:35;;;;;;;143.18;52.13;;;3.90;99.90;;;;;;5065232;28;20040;-91
2022/01/25 02:37:07;;;;;;;137.32;48.97;;;3.90;99.90;;;;;;5055168;28;20455;-92
2022/01/25 02:39:33;;;;;;;139.10;49.75;;;3.90;99.90;;;;;;5056905;28;20097;-92
2022/01/25 02:42:00;;;;;;;135.02;50.42;;;3.90;99.90;;;;;;5071635;28;20097;-91
2022/01/25 02:44:27;;;;;;;137.63;47.95;;;3.80;99.90;;;;;;5065732;28;20590;-91
2022/01/25 02:49:28;;;;;;;136.13;47.60;;;3.70;99.90;;;;;;5089370;28;20515;-92
2022/01/25 02:51:54;;;;;;;135.52;49.05;;;3.80;99.90;;;;;;5075014;28;20127;-92
2022/01/25 02:54:19;;;;;;;131.85;49.10;;;3.70;99.90;;;;;;5068515;28;20129;-91
2022/01/25 02:56:46;;;;;;;131.05;47.60;;;3.80;99.90;;;;;;5074441;28;20040;-92
2022/01/25 02:59:14;;;;;;;143.40;50.15;;;3.80;99.90;;;;;;5086171;28;20036;-92
2022/01/25 03:01:40;;;;;;;137.27;48.17;;;3.70;99.90;;;;;;5059443;28;20052;-92
2022/01/25 03:04:07;;;;;;;136.88;48.75;;;3.70;99.90;;;;;;5063525;28;20055;-92
2022/01/25 03:06:33;;;;;;;133.15;48.25;;;3.70;99.90;;;;;;5055068;28;20075;-91
2022/01/25 03:08:59;;;;;;;139.18;48.80;;;3.70;99.90;;;;;;5071819;28;20529;-91
2022/01/25 03:11:25;;;;;;;134.43;49.13;;;3.80;99.90;;;;;;5071565;28;20045;-91
2022/01/25 03:13:54;;;;;;;144.68;51.88;;;3.80;99.90;;;;;;5055355;28;20032;-91
2022/01/25 03:18:57;;;;;;;137.85;49.05;;;3.80;99.90;;;;;;5070750;28;20414;-92
2022/01/25 03:23:52;;;;;;;141.18;52.03;;;3.80;99.90;;;;;;5104198;28;20047;-92
2022/01/25 03:26:19;;;;;;;144.55;50.63;;;3.80;99.90;;;;;;5074349;28;20096;-92
2022/01/25 03:28:45;;;;;;;143.02;49.55;;;3.70;99.90;;;;;;5090796;28;20154;-92
2022/01/25 03:31:11;;;;;;;138.90;49.15;;;3.80;99.90;;;;;;5077488;28;20762;-92
2022/01/25 03:33:37;;;;;;;141.07;51.13;;;3.80;99.90;;;;;;5070849;28;20123;-92
2022/01/25 03:36:04;;;;;;;136.90;48.83;;;3.80;99.90;;;;;;5073434;28;20397;-92
2022/01/25 03:38:30;;;;;;;144.27;51.60;;;3.80;99.90;;;;;;5074052;28;20044;-92
2022/01/25 03:40:56;;;;;;;144.65;51.38;;;3.80;99.90;;;;;;5072187;28;20036;-92
2022/01/25 03:43:22;;;;;;;142.02;52.47;;;3.70;99.90;;;;;;5072310;28;20135;-92
2022/01/25 03:46:00;;;;;;;145.00;53.58;;;3.70;99.90;;;;;;5054858;28;20068;-92
2022/01/25 03:50:52;;;;;;;131.65;49.10;;;3.60;99.90;;;;;;5093387;28;20051;-92
2022/01/25 03:53:19;;;;;;;145.50;49.20;;;3.70;99.90;;;;;;5096425;27;20125;-92
2022/01/25 03:55:46;;;;;;;144.70;50.22;;;3.70;99.90;;;;;;5093937;28;20031;-92
2022/01/25 03:58:12;;;;;;;141.10;50.22;;;3.80;99.90;;;;;;5094392;27;20047;-92
2022/01/25 04:00:38;;;;;;;141.10;51.35;;;3.80;99.90;;;;;;5077278;28;20122;-92
2022/01/25 04:03:11;;;;;;;143.93;51.80;;;3.80;99.90;;;;;;5084737;28;20036;-92
2022/01/25 04:05:59;;;;;;;141.50;50.75;;;3.80;99.90;;;;;;5074595;28;20101;-92
2022/01/25 04:08:23;;;;;;;129.90;46.90;;;3.80;99.90;;;;;;5093498;28;20163;-92
2022/01/25 04:10:49;;;;;;;141.77;48.47;;;3.80;99.90;;;;;;5074627;28;20134;-92
2022/01/25 04:13:15;;;;;;;138.48;50.08;;;3.80;99.90;;;;;;5059283;28;20131;-91
2022/01/25 04:15:44;;;;;;;136.32;48.35;;;3.80;99.90;;;;;;5057111;28;20127;-92
2022/01/25 04:21:02;;;;;;;147.07;50.13;;;3.90;99.90;;;;;;5072814;28;20685;-93
2022/01/25 04:26:11;;;;;;;;;;;3.80;99.90;;;;;;5094050;28;20480;-93
2022/01/25 04:28:37;;;;;;;143.25;49.60;;;3.80;99.90;;;;;;5076936;28;19920;-93
2022/01/25 04:31:02;;;;;;;132.73;49.45;;;3.80;99.90;;;;;;5093272;28;20042;-92
2022/01/25 04:33:39;;;;;;;140.45;49.35;;;3.80;99.90;;;;;;5092513;28;20040;-93
2022/01/25 04:49:33;;;;;;;128.02;45.13;;;3.80;99.90;;;;;;5081958;28;20088;-92
2022/01/25 04:52:15;;;;;;;137.48;48.38;;;3.80;99.90;;;;;;5076388;27;20120;-92
2022/01/25 04:54:50;;;;;;;145.35;47.58;;;3.90;99.90;;;;;;5099152;28;20036;-92
2022/01/25 04:57:38;;;;;;;135.32;48.83;;;3.90;99.90;;;;;;5075964;28;20040;-93
2022/01/25 05:00:15;;;;;;;139.32;48.50;;;3.90;99.90;;;;;;5063093;28;20524;-93
2022/01/25 05:02:51;;;;;;;131.43;46.65;;;3.90;99.90;;;;;;5062612;27;20035;-92
2022/01/25 05:05:24;;;;;;;133.00;47.38;;;3.90;99.90;;;;;;5059463;28;20115;-93
2022/01/25 05:10:19;;;;;;;134.50;47.88;;;3.90;99.90;;;;;;5092779;28;20134;-92
2022/01/25 05:12:50;;;;;;;131.10;46.45;;;3.80;99.90;;;;;;5074744;28;20607;-92
2022/01/25 05:17:47;;;;;;;131.25;46.67;;;3.90;99.90;;;;;;5078273;27;20497;-92
2022/01/25 05:22:56;;;;;;;138.80;48.65;;;4.00;99.90;;;;;;5089127;28;20043;-92
2022/01/25 05:25:22;;;;;;;126.50;46.28;;;4.00;99.90;;;;;;5069882;28;20055;-92
2022/01/25 05:27:48;;;;;;;132.45;48.47;;;4.00;99.90;;;;;;5075214;28;20193;-93
2022/01/25 05:30:13;;;;;;;131.88;47.47;;;4.00;99.90;;;;;;5060976;28;20040;-92
2022/01/25 05:32:39;;;;;;;133.02;48.97;;;4.10;99.90;;;;;;5054960;28;20195;-93
2022/01/25 05:35:05;;;;;;;133.63;47.17;;;4.00;99.90;;;;;;5062684;28;20036;-92
2022/01/25 05:37:40;;;;;;;137.35;47.47;;;4.00;99.90;;;;;;5057274;28;20035;-92
2022/01/25 05:40:13;;;;;;;138.45;47.15;;;4.10;99.90;;;;;;5088852;28;20046;-92
2022/01/25 05:45:18;;;;;;;136.48;47.13;;;4.10;99.90;;;;;;5095795;28;20040;-92
2022/01/25 05:47:44;;;;;;;138.82;47.10;;;4.10;99.90;;;;;;5074714;28;20100;-92
2022/01/25 05:50:12;;;;;;;134.63;46.45;;;4.10;99.90;;;;;;5062167;28;20462;-91
2022/01/25 05:52:38;;;;;;;133.15;46.28;;;4.00;99.90;;;;;;5054986;28;20394;-92
2022/01/25 05:55:04;;;;;;;143.13;48.75;;;4.00;99.90;;;;;;5073784;28;20039;-91
2022/01/25 05:57:30;;;;;;;136.82;48.85;;;4.00;99.90;;;;;;5074485;28;20050;-91
2022/01/25 05:59:56;;;;;;;134.77;49.22;;;4.00;99.90;;;;;;5074216;28;20130;-93
2022/01/25 06:02:24;;;;;;;134.05;47.50;;;3.90;99.90;;;;;;5083922;27;20039;-91
2022/01/25 06:04:52;;;;;;;144.30;49.88;;;3.90;99.90;;;;;;5069622;28;20044;-92
2022/01/25 06:07:18;;;;;;;133.18;46.80;;;3.90;99.90;;;;;;5070507;28;20031;-92
2022/01/25 06:09:43;;;;;;;133.20;45.70;;;3.90;99.90;;;;;;5073972;28;20338;-92
2022/01/25 06:12:10;;;;;;;135.95;47.30;;;3.90;99.90;;;;;;5070344;28;20489;-93
2022/01/25 06:14:37;;;;;;;143.32;50.75;;;3.90;99.90;;;;;;5073576;28;20119;-92
2022/01/25 06:17:03;;;;;;;140.73;48.55;;;3.80;99.90;;;;;;5054343;28;20051;-93
2022/01/25 06:19:29;;;;;;;139.10;46.83;;;3.80;99.90;;;;;;5070110;28;20039;-92
2022/01/25 06:21:54;;;;;;;136.52;47.38;;;3.70;99.90;;;;;;5076459;28;20173;-92
2022/01/25 06:24:20;;;;;;;142.77;47.17;;;3.80;99.90;;;;;;5070510;28;20043;-93
2022/01/25 06:26:45;;;;;;;137.65;49.08;;;3.80;99.90;;;;;;5071021;28;20085;-93
2022/01/25 06:29:15;;;;;;;136.95;47.00;;;3.80;99.90;;;;;;5062283;28;20036;-94
2022/01/25 06:31:41;;;;;;;138.32;48.75;;;3.70;99.90;;;;;;5063165;28;20040;-92
2022/01/25 06:34:06;;;;;;;130.38;45.55;;;3.70;99.90;;;;;;5086299;28;20131;-92
2022/01/25 06:36:32;;;;;;;137.63;49.05;;;3.70;99.90;;;;;;5073747;28;20039;-93
2022/01/25 06:38:59;;;;;;;133.40;47.33;;;3.70;99.90;;;;;;5073774;28;20118;-92
2022/01/25 06:41:24;;;;;;;136.55;48.80;;;3.70;99.90;;;;;;5076801;28;20036;-92
2022/01/25 06:43:50;;;;;;;142.55;48.50;;;3.70;99.90;;;;;;5071351;28;20505;-92
2022/01/25 06:46:16;;;;;;;140.95;48.45;;;3.70;99.90;;;;;;5067997;28;20060;-92
2022/01/25 06:48:41;;;;;;;137.68;49.40;;;3.70;99.90;;;;;;5053973;28;20520;-92
2022/01/25 06:51:07;;;;;;;143.10;48.75;;;3.70;99.90;;;;;;5058821;28;20043;-92
2022/01/25 06:53:32;;;;;;;138.73;47.05;;;3.70;99.90;;;;;;5064803;28;20089;-93
2022/01/25 06:55:58;;;;;;;138.43;46.92;;;3.70;99.90;;;;;;5090375;28;20038;-93
2022/01/25 06:58:24;;;;;;;129.55;46.70;;;3.80;99.90;;;;;;5068846;28;20047;-92
2022/01/25 07:00:50;;;;;;;136.48;47.38;;;3.80;99.90;;;;;;5086383;28;20044;-93
2022/01/25 07:03:16;;;;;;;135.98;46.33;;;3.80;99.90;;;;;;5072087;28;20044;-94
2022/01/25 07:05:41;;;;;;;133.48;46.05;;;3.80;99.90;;;;;;5073364;28;20035;-92
2022/01/25 07:08:07;;;;;;;136.73;46.22;;;3.80;99.90;;;;;;5057855;28;20055;-93
2022/01/25 07:10:32;;;;;;;137.57;46.60;;;3.90;99.90;;;;;;5054276;28;20123;-94
2022/01/25 07:12:58;;;;;;;129.68;46.03;;;3.90;99.90;;;;;;5070674;28;20048;-94
2022/01/25 07:15:24;;;;;;;131.90;45.92;;;3.90;99.90;;;;;;5075266;28;20039;-94
2022/01/25 07:17:49;;;;;;;143.48;49.42;;;3.80;99.90;;;;;;5090373;27;20492;-94
2022/01/25 07:20:15;;;;;;;135.80;46.63;;;3.90;99.90;;;;;;5090828;28;20040;-95
2022/01/25 07:22:41;;;;;;;125.88;45.80;;;4.00;99.90;;;;;;5062109;28;20072;-93
2022/01/25 07:25:09;;;;;;;132.13;45.22;;;3.90;99.90;;;;;;5104264;27;20077;-96
2022/01/25 07:27:35;;;;;;;135.63;47.92;;;3.90;99.90;;;;;;5086370;28;20035;-95
2022/01/25 07:30:02;;;;;;;137.02;45.65;;;3.90;99.90;;;;;;5101917;28;20051;-94
2022/01/25 07:32:27;;;;;;;132.93;46.65;;;3.90;99.90;;;;;;5078054;28;20436;-94
2022/01/25 07:34:53;;;;;;;130.10;46.40;;;3.90;99.90;;;;;;5095713;28;20081;-94
2022/01/25 07:37:18;;;;;;;132.27;45.28;;;3.90;99.90;;;;;;5085689;28;20470;-94
2022/01/25 07:39:45;;;;;;;128.02;46.92;;;3.90;99.90;;;;;;5069838;28;20044;-95
2022/01/25 07:42:11;;;;;;;129.82;46.55;;;3.90;99.90;;;;;;5077295;28;20055;-94
2022/01/25 07:44:38;;;;;;;127.85;44.72;;;3.90;99.90;;;;;;5077186;28;20039;-95
2022/01/25 07:47:05;;;;;;;131.50;46.08;;;4.00;99.90;;;;;;5083790;28;20052;-94
2022/01/25 07:49:31;;;;;;;129.35;44.55;;;4.00;99.90;;;;;;5072206;28;20059;-94
2022/01/25 07:51:58;;;;;;;129.70;45.17;;;4.00;99.90;;;;;;5076948;28;20047;-94
2022/01/25 07:54:24;;;;;;;131.15;43.67;;;3.90;99.90;;;;;;5072663;27;20188;-93
2022/01/25 07:56:50;;;;;;;131.15;46.50;;;3.90;99.90;;;;;;5070976;28;20044;-94
2022/01/25 07:59:16;;;;;;;142.07;46.50;;;3.90;99.90;;;;;;5070110;28;20050;-92
2022/01/25 08:01:42;;;;;;;128.68;45.25;;;3.80;99.90;;;;;;5075908;28;20048;-92
2022/01/25 08:04:09;;;;;;;129.00;45.72;;;3.80;99.90;;;;;;5088876;28;20407;-93
2022/01/25 08:06:35;;;;;;;125.90;43.78;;;3.70;99.90;;;;;;5094021;28;20045;-93
2022/01/25 08:09:01;;;;;;;130.13;44.63;;;3.70;99.90;;;;;;5093644;28;20047;-93
2022/01/25 08:11:28;;;;;;;135.80;46.00;;;3.70;99.90;;;;;;5086874;28;20067;-93
2022/01/25 08:14:00;;;;;;;127.90;43.75;;;3.80;99.90;;;;;;5093469;28;20043;-93
2022/01/25 08:16:26;;;;;;;136.45;45.60;;;3.80;99.90;;;;;;5073201;28;20096;-93
2022/01/25 08:18:52;;;;;;;127.13;44.15;;;3.70;99.90;;;;;;5076076;28;20032;-94
2022/01/25 08:21:18;;;;;;;130.95;45.85;;;3.80;99.90;;;;;;5079282;28;20050;-93
2022/01/25 08:23:43;;;;;;;136.43;45.30;;;3.80;99.90;;;;;;5093468;28;20509;-94
2022/01/25 08:26:09;;;;;;;139.07;46.92;;;3.80;99.90;;;;;;5093481;28;20048;-93
2022/01/25 08:28:34;;;;;;;136.70;45.38;;;3.80;99.90;;;;;;5110348;28;20048;-93
2022/01/25 08:31:00;;;;;;;134.18;45.63;;;3.80;99.90;;;;;;5092364;28;20047;-93
2022/01/25 08:33:26;;;;;;;128.65;44.72;;;3.90;99.90;;;;;;5110321;28;20126;-93
2022/01/25 08:35:51;;;;;;;129.88;43.78;;;3.80;99.90;;;;;;5092974;28;20457;-93
2022/01/25 08:38:17;;;;;;;128.68;44.95;;;3.80;99.90;;;;;;5093138;28;20036;-92
2022/01/25 08:40:42;;;;;;;127.93;45.40;;;3.90;99.90;;;;;;5087661;28;20043;-93
2022/01/25 08:43:08;;;;;;;129.63;44.00;;;3.90;99.90;;;;;;5093179;28;20042;-93
2022/01/25 08:45:33;;;;;;;132.05;47.10;;;3.90;99.90;;;;;;5076166;28;20040;-93
2022/01/25 08:47:59;;;;;;;126.55;44.30;;;3.80;99.90;;;;;;5076203;28;20055;-93
2022/01/25 08:50:25;;;;;;;130.27;43.25;;;3.80;99.90;;;;;;5076057;28;20741;-93
2022/01/25 08:52:51;;;;;;;135.80;46.70;;;3.80;99.90;;;;;;5075182;28;20050;-93
2022/01/25 08:55:17;;;;;;;127.85;45.58;;;3.90;99.90;;;;;;5056109;28;20039;-94
2022/01/25 08:57:43;;;;;;;127.72;44.30;;;3.90;99.90;;;;;;5060172;28;20040;-93
2022/01/25 09:00:11;;;;;;;130.23;45.78;;;3.80;99.90;;;;;;5062538;28;20031;-93
2022/01/25 09:02:37;;;;;;;128.90;41.95;;;3.90;99.90;;;;;;5091726;28;20154;-93
2022/01/25 09:05:03;;;;;;;131.48;44.78;;;3.90;99.90;;;;;;5075549;28;20532;-92
2022/01/25 09:07:30;;;;;;;128.55;45.72;;;3.90;99.90;;;;;;5072736;28;20039;-93
2022/01/25 09:09:55;;;;;;;125.20;45.25;;;3.90;99.90;;;;;;5076255;28;20044;-94
2022/01/25 09:12:21;;;;;;;132.88;44.50;;;4.00;99.90;;;;;;5069364;28;20061;-94
2022/01/25 09:14:46;;;;;;;130.27;43.38;;;4.00;99.90;;;;;;5075801;28;20051;-94
2022/01/25 09:17:13;;;;;;;127.57;44.45;;;4.00;99.90;;;;;;5075126;28;20062;-96
2022/01/25 09:19:39;;;;;;;124.88;42.58;;;4.10;99.90;;;;;;5092148;28;20578;-94
2022/01/25 09:22:08;;;;;;;126.20;42.97;;;4.10;99.90;;;;;;5092251;28;20050;-94
2022/01/25 09:24:37;;;;;;;133.30;46.20;;;4.20;99.90;;;;;;5087107;28;20043;-94
2022/01/25 09:27:05;;;;;;;131.27;44.58;;;4.20;99.90;;;;;;5075364;28;20482;-94
2022/01/25 09:29:30;;;;;;;132.40;43.88;;;4.10;99.90;;;;;;5075261;28;20630;-93
2022/01/25 09:31:56;;;;;;;123.25;43.42;;;4.10;99.90;;;;;;5071478;28;20581;-93
2022/01/25 09:34:23;;;;;;;136.98;45.67;;;4.10;99.90;;;;;;5055574;28;20083;-93
2022/01/25 09:36:50;;;;;;;130.40;43.17;;;4.00;99.90;;;;;;5055096;28;20066;-93
2022/01/25 09:39:16;;;;;;;123.57;43.63;;;4.10;99.90;;;;;;5067792;28;20036;-94
2022/01/25 09:41:42;;;;;;;125.03;44.80;;;4.10;99.90;;;;;;5075606;28;20161;-94
2022/01/25 09:44:08;;;;;;;123.60;42.00;;;4.10;99.90;;;;;;5092032;28;20079;-94
2022/01/25 09:46:33;;;;;;;128.13;44.55;;;4.20;99.90;;;;;;5069688;28;20490;-93
2022/01/25 09:48:59;;;;;;;119.57;43.92;;;4.10;99.90;;;;;;5071300;28;20501;-94
2022/01/25 09:51:25;;;;;;;126.88;43.75;;;4.20;99.90;;;;;;5080624;28;20072;-93
2022/01/25 09:53:51;;;;;;;126.63;43.13;;;4.20;99.90;;;;;;5067394;28;20040;-94
2022/01/25 09:56:16;;;;;;;125.15;42.38;;;4.30;99.90;;;;;;5056879;28;20477;-94
2022/01/25 09:58:44;;;;;;;128.32;43.45;;;4.40;99.90;;;;;;5065854;28;20040;-95
2022/01/25 10:01:10;;;;;;;134.65;41.80;;;4.50;99.90;;;;;;5070001;28;20047;-93
2022/01/25 10:03:41;;;;;;;121.40;41.60;;;4.60;99.90;;;;;;5062240;28;20044;-94
2022/01/25 10:06:13;;;;;;;135.65;44.17;;;4.50;99.90;;;;;;5070822;28;20040;-94
2022/01/25 10:08:39;;;;;;;129.68;46.25;;;4.50;99.90;;;;;;5071142;28;20067;-94
2022/01/25 10:11:08;;;;;;;128.93;42.17;;;4.40;99.90;;;;;;5070672;28;20510;-95
2022/01/25 10:13:36;;;;;;;141.38;45.65;;;4.40;99.90;;;;;;5071365;28;20040;-94
2022/01/25 10:16:12;;;;;;;134.35;47.28;;;4.50;99.90;;;;;;5067407;28;20040;-95
2022/01/25 10:18:37;;;;;;;137.88;46.67;;;4.50;99.90;;;;;;5070382;28;20044;-95
2022/01/25 10:21:03;;;;;;;133.13;43.85;;;4.50;99.90;;;;;;5088374;28;20055;-95
2022/01/25 10:23:31;;;;;;;124.60;43.05;;;4.40;99.90;;;;;;5071149;28;20048;-95
2022/01/25 10:26:00;;;;;;;124.20;42.03;;;4.50;99.90;;;;;;5088412;28;20144;-95
2022/01/25 10:28:30;;;;;;;134.00;44.97;;;4.60;99.90;;;;;;5071396;28;20051;-95
2022/01/25 10:31:01;;;;;;;160.63;51.47;;;4.70;99.90;;;;;;5079699;28;20052;-94
2022/01/25 10:33:34;;;;;;;142.00;45.72;;;4.60;99.90;;;;;;5071513;28;20040;-95
2022/01/25 10:36:13;;;;;;;152.00;50.22;;;4.60;99.90;;;;;;5068087;28;21848;-94
2022/01/25 10:38:41;;;;;;;146.85;47.45;;;4.60;99.90;;;;;;5067026;28;20036;-94
2022/01/25 10:41:26;;;;;;;153.07;49.13;;;4.60;99.90;;;;;;5070594;28;20047;-94
2022/01/25 10:43:55;;;;;;;149.88;46.60;;;4.60;99.90;;;;;;5084395;28;20037;-94
2022/01/25 10:46:29;;;;;;;139.45;45.10;;;4.60;99.90;;;;;;5061389;28;20731;-94
2022/01/25 10:49:00;;;;;;;138.13;45.20;;;4.70;99.90;;;;;;5057072;28;20052;-95
2022/01/25 10:51:28;;;;;;;132.15;43.30;;;4.70;99.90;;;;;;5070806;28;20062;-94
2022/01/25 10:54:09;;;;;;;132.07;44.95;;;4.80;99.90;;;;;;5062350;28;20075;-94
2022/01/25 10:56:41;;;;;;;149.18;48.22;;;4.80;99.90;;;;;;5063739;28;20041;-95
2022/01/25 10:59:09;;;;;;;135.32;46.33;;;4.80;99.90;;;;;;5059311;28;20079;-94
2022/01/25 11:01:38;;;;;;;129.90;43.42;;;4.80;99.90;;;;;;5054517;28;20036;-96
2022/01/25 11:04:11;;;;;;;136.50;44.88;;;4.80;99.90;;;;;;5064971;28;20075;-94
2022/01/25 11:06:37;;;;;;;141.23;44.17;;;4.70;99.90;;;;;;5060355;28;20510;-94
2022/01/25 11:09:06;;;;;;;146.45;47.95;;;4.70;99.90;;;;;;5041587;28;20697;-94
2022/01/25 11:11:51;;;;;;;143.23;45.90;;;4.70;99.90;;;;;;5048137;28;20498;-95
2022/01/25 11:17:01;;;;;;;130.27;43.03;;;4.70;99.90;;;;;;5070053;28;19928;-95
2022/01/25 11:19:26;;;;;;;135.85;43.92;;;4.80;99.90;;;;;;5061151;28;20044;-95
2022/01/25 11:21:54;;;;;;;131.70;43.53;;;4.70;99.90;;;;;;5053345;28;20037;-95
2022/01/25 11:24:23;;;;;;;132.50;44.88;;;4.70;99.90;;;;;;5054327;28;20436;-96
2022/01/25 11:26:50;;;;;;;131.73;44.08;;;4.70;99.90;;;;;;5054311;28;20143;-95
2022/01/25 11:29:16;;;;;;;139.15;46.47;;;4.70;99.90;;;;;;5070991;28;20079;-93
2022/01/25 11:31:47;;;;;;;125.85;44.30;;;4.70;99.90;;;;;;5070578;28;20040;-95
2022/01/25 11:34:14;;;;;;;138.30;45.53;;;4.80;99.90;;;;;;5070741;28;20051;-94
2022/01/25 11:36:55;;;;;;;132.98;46.05;;;4.80;99.90;;;;;;5053642;28;20140;-95
2022/01/25 11:39:24;;;;;;;129.73;44.25;;;4.70;99.90;;;;;;5053454;28;20109;-96
2022/01/25 11:41:51;;;;;;;130.93;46.70;;;4.70;99.90;;;;;;5053637;28;20474;-95
2022/01/25 11:44:21;;;;;;;136.05;44.70;;;4.70;99.90;;;;;;5070680;28;20737;-95
2022/01/25 11:46:54;;;;;;;133.00;45.25;;;4.90;99.90;;;;;;5060962;28;20048;-94
2022/01/25 11:49:21;;;;;;;135.10;43.90;;;4.80;99.90;;;;;;5088028;28;20102;-95
2022/01/25 11:52:10;;;;;;;134.23;46.40;;;4.80;99.90;;;;;;5053529;28;20033;-94
2022/01/25 11:54:36;;;;;;;128.00;43.30;;;4.80;99.90;;;;;;5070505;28;20139;-95
2022/01/25 11:57:09;;;;;;;144.90;44.88;;;4.80;99.90;;;;;;5054906;28;20125;-94
2022/01/25 11:59:35;;;;;;;143.27;48.85;;;4.80;99.90;;;;;;5054246;28;20805;-96
2022/01/25 12:02:01;;;;;;;136.15;45.10;;;4.80;99.90;;;;;;5053866;28;20491;-95
2022/01/25 12:04:29;;;;;;;134.68;44.60;;;4.80;99.90;;;;;;5052129;28;20127;-95
2022/01/25 12:07:01;;;;;;;131.57;45.30;;;4.90;99.90;;;;;;5056067;28;20036;-95
2022/01/25 12:09:46;;;;;;;139.35;46.38;;;4.90;99.90;;;;;;5052527;28;20127;-94
2022/01/25 12:12:14;;;;;;;153.80;48.63;;;4.90;99.90;;;;;;5072239;28;20041;-94
2022/01/25 12:14:41;;;;;;;153.10;52.55;;;4.90;99.90;;;;;;5069683;28;20490;-95
2022/01/25 12:17:06;;;;;;;138.65;45.45;;;4.90;99.90;;;;;;5069905;28;20119;-94
2022/01/25 12:19:48;;;;;;;136.15;45.72;;;5.10;99.90;;;;;;5077171;28;20124;-94
2022/01/25 12:25:37;;;;;;;128.98;45.28;;;5.00;99.90;;;;;;5062103;28;20040;-94
2022/01/25 12:28:06;;;;;;;141.90;45.80;;;5.00;99.90;;;;;;5056226;28;20060;-93
2022/01/25 12:30:44;;;;;;;134.40;46.47;;;5.00;99.90;;;;;;5058540;28;20511;-93
2022/01/25 12:33:27;;;;;;;130.77;45.00;;;4.90;99.90;;;;;;5037529;28;20059;-94
2022/01/25 12:36:03;;;;;;;131.43;45.45;;;4.90;99.90;;;;;;5053022;28;20442;-93
2022/01/25 12:38:37;;;;;;;134.32;45.35;;;4.90;99.90;;;;;;5053556;28;20818;-95
2022/01/25 12:41:20;;;;;;;123.82;44.70;;;5.00;99.90;;;;;;5068334;28;20044;-94
2022/01/25 12:43:53;;;;;;;135.35;44.88;;;5.10;99.90;;;;;;5059014;28;20044;-93
2022/01/25 12:46:33;;;;;;;129.80;43.17;;;5.00;99.90;;;;;;5056096;28;20539;-93
2022/01/25 12:49:05;;;;;;;134.35;45.20;;;5.00;99.90;;;;;;5059614;28;20469;-94
2022/01/25 12:51:36;;;;;;;135.23;44.05;;;4.90;99.90;;;;;;5054615;28;20086;-94
2022/01/25 12:54:05;;;;;;;132.18;45.30;;;4.90;99.90;;;;;;5069133;28;20044;-95
2022/01/25 12:56:36;;;;;;;123.88;43.17;;;5.00;99.90;;;;;;5069482;28;20055;-94
2022/01/25 12:59:11;;;;;;;125.05;42.72;;;5.00;99.90;;;;;;5069051;28;20044;-94
2022/01/25 13:01:39;;;;;;;128.70;43.78;;;5.10;99.90;;;;;;5051951;28;20040;-93
2022/01/25 13:04:07;;;;;;;124.13;41.88;;;5.10;99.90;;;;;;5052407;28;20051;-93
2022/01/25 13:06:35;;;;;;;120.35;39.95;;;5.10;99.90;;;;;;5052545;28;20080;-95
2022/01/25 13:09:14;;;;;;;126.30;45.42;;;5.10;99.90;;;;;;5052505;28;20060;-93
2022/01/25 13:16:48;;;;;;;129.35;43.80;;;5.00;99.90;;;;;;5085704;28;20520;-94
2022/01/25 13:19:24;;;;;;;120.38;41.38;;;5.10;99.90;;;;;;5065950;28;20080;-95
2022/01/25 13:21:52;;;;;;;121.03;43.38;;;5.00;99.90;;;;;;5068538;28;20037;-93
2022/01/25 13:24:19;;;;;;;129.57;44.42;;;5.00;99.90;;;;;;5068831;28;20040;-96
2022/01/25 13:26:57;;;;;;;130.65;43.58;;;5.00;99.90;;;;;;5047974;28;20515;-94
2022/01/25 13:32:36;;;;;;;131.43;46.65;;;5.00;99.90;;;;;;5023505;28;20479;-94
2022/01/25 13:35:20;;;;;;;162.02;73.63;;;4.90;99.90;;;;;;4994688;28;20184;-94
2022/01/25 13:37:59;;;;;;;;;;;4.90;99.90;;;;;;4995349;28;20059;-95
2022/01/25 13:40:33;;;;;;;151.35;63.88;;;4.90;99.90;;;;;;4994678;28;20398;-94
2022/01/25 13:43:19;;;;;;;122.95;41.67;;;4.90;99.90;;;;;;4994793;28;20121;-95
2022/01/25 13:45:53;;;;;;;125.90;45.00;;;5.00;99.90;;;;;;5010333;28;20056;-94
2022/01/25 13:48:21;;;;;;;136.32;46.38;;;5.00;99.90;;;;;;5028526;28;20064;-94
2022/01/25 13:50:53;;;;;;;133.40;48.78;;;5.00;99.90;;;;;;5014118;28;20049;-94
2022/01/25 13:53:19;;;;;;;130.63;44.10;;;4.90;99.90;;;;;;5030551;28;20502;-95
2022/01/25 13:55:54;;;;;;;134.18;48.08;;;5.00;99.90;;;;;;5027561;28;20045;-96
2022/01/25 13:58:21;;;;;;;130.75;44.30;;;4.90;99.90;;;;;;4994525;28;20053;-93
2022/01/25 14:00:47;;;;;;;137.85;48.80;;;4.90;99.90;;;;;;5011738;28;20052;-96
2022/01/25 14:03:15;;;;;;;135.68;46.28;;;4.90;99.90;;;;;;5034838;28;20048;-95
2022/01/25 14:05:41;;;;;;;127.55;44.63;;;4.90;99.90;;;;;;5076658;28;20051;-94
2022/01/25 14:08:07;;;;;;;125.35;43.70;;;4.90;99.90;;;;;;5075501;28;20040;-94
2022/01/25 14:10:32;;;;;;;124.47;44.28;;;4.90;99.90;;;;;;5078360;28;20047;-93
2022/01/25 14:21:41;;;;;;;126.80;42.13;;;4.90;99.90;;;;;;5080746;28;20056;-94
2022/01/25 14:24:07;;;;;;;122.53;42.85;;;5.00;99.90;;;;;;5071303;28;20048;-94
2022/01/25 14:26:33;;;;;;;122.65;42.53;;;4.90;99.90;;;;;;5087607;28;20036;-94
2022/01/25 14:29:12;;;;;;;124.22;42.72;;;4.90;99.90;;;;;;5073778;28;20036;-95
2022/01/25 14:31:41;;;;;;;119.38;41.60;;;4.90;99.90;;;;;;5075357;28;20121;-94
2022/01/25 14:34:13;;;;;;;125.00;42.83;;;4.80;99.90;;;;;;5075487;28;20080;-93
2022/01/25 14:36:42;;;;;;;127.80;42.10;;;4.80;99.90;;;;;;5092199;28;20040;-95